Time;durP1;ratioP1;P1;durP2;ratioP2;P2;SDS_P1;SDS_P2;PMS_P1;PMS_P2;Temp;Humidity;BMP_temperature;BMP_pressure;BME280_temperature;BME280_humidity;BME280_pressure;Samples;Min_cycle;Max_cycle;Signal;HPM_P1;HPM_P2
2023/04/24 00:00:05;;;;;;;1.08;0.60;;;15.00;97.20;;;;;;5070861;28;20090;-68
2023/04/24 00:02:32;;;;;;;2.42;0.60;;;14.90;97.20;;;;;;5071777;28;20047;-68
2023/04/24 00:05:02;;;;;;;0.98;0.47;;;14.90;97.30;;;;;;5071713;28;20021;-68
2023/04/24 00:07:28;;;;;;;0.50;0.50;;;14.90;97.00;;;;;;5072116;28;20461;-68
2023/04/24 00:09:54;;;;;;;1.88;0.70;;;14.80;97.10;;;;;;5071849;28;20446;-69
2023/04/24 00:12:20;;;;;;;3.00;0.40;;;14.80;97.40;;;;;;5071477;28;20124;-68
2023/04/24 00:14:46;;;;;;;0.95;0.50;;;14.80;97.10;;;;;;5071713;28;20093;-68
2023/04/24 00:17:12;;;;;;;3.45;0.65;;;14.80;97.20;;;;;;5071816;28;20401;-69
2023/04/24 00:19:38;;;;;;;1.40;0.60;;;14.80;97.10;;;;;;5071915;28;20438;-69
2023/04/24 00:22:04;;;;;;;1.23;0.50;;;14.80;97.50;;;;;;5071813;28;20032;-68
2023/04/24 00:24:29;;;;;;;0.52;0.40;;;14.80;96.90;;;;;;5071185;28;20084;-68
2023/04/24 00:26:55;;;;;;;1.58;0.60;;;14.70;97.20;;;;;;5071274;28;20029;-68
2023/04/24 00:29:20;;;;;;;2.08;0.47;;;14.70;97.30;;;;;;5071304;28;20359;-69
2023/04/24 00:31:46;;;;;;;0.70;0.50;;;14.70;97.30;;;;;;5071001;28;20025;-69
2023/04/24 00:34:12;;;;;;;0.35;0.30;;;14.70;97.30;;;;;;5071891;28;20033;-69
2023/04/24 00:36:38;;;;;;;3.53;0.70;;;14.60;97.10;;;;;;5071079;28;20036;-70
2023/04/24 00:39:03;;;;;;;2.70;0.70;;;14.70;97.20;;;;;;5071163;28;20127;-68
2023/04/24 00:41:30;;;;;;;2.90;0.60;;;14.70;97.10;;;;;;5071079;28;20458;-69
2023/04/24 00:43:55;;;;;;;1.38;0.60;;;14.60;97.40;;;;;;5071362;28;20442;-70
2023/04/24 00:46:22;;;;;;;0.50;0.20;;;14.60;97.20;;;;;;5071666;28;20029;-69
2023/04/24 00:48:47;;;;;;;0.90;0.68;;;14.60;97.30;;;;;;5070932;28;20490;-69
2023/04/24 00:51:13;;;;;;;1.13;0.57;;;14.70;97.30;;;;;;5070502;28;20072;-70
2023/04/24 00:53:39;;;;;;;1.40;0.60;;;14.60;97.50;;;;;;5070893;28;20032;-70
2023/04/24 00:56:05;;;;;;;0.93;0.40;;;14.60;97.00;;;;;;5070828;28;20054;-69
2023/04/24 00:58:31;;;;;;;1.48;0.60;;;14.60;97.00;;;;;;5071229;28;20319;-69
2023/04/24 01:00:58;;;;;;;4.63;0.60;;;14.60;96.80;;;;;;5071072;28;20070;-69
2023/04/24 01:03:27;;;;;;;3.08;0.55;;;14.60;96.60;;;;;;5070820;28;20036;-69
2023/04/24 01:05:54;;;;;;;1.15;0.68;;;14.60;96.40;;;;;;5070931;28;20094;-68
2023/04/24 01:08:23;;;;;;;3.03;0.90;;;14.50;96.30;;;;;;5069511;28;20582;-70
2023/04/24 01:10:50;;;;;;;3.35;0.70;;;14.50;96.10;;;;;;5070597;28;20078;-70
2023/04/24 01:13:16;;;;;;;1.13;0.47;;;14.50;95.80;;;;;;5071469;28;20017;-69
2023/04/24 01:15:42;;;;;;;0.75;0.60;;;14.50;95.70;;;;;;5070666;28;20025;-69
2023/04/24 01:18:07;;;;;;;0.50;0.45;;;14.50;95.50;;;;;;5070713;28;20095;-69
2023/04/24 01:20:34;;;;;;;1.95;0.60;;;14.50;95.30;;;;;;5070505;28;20016;-68
2023/04/24 01:23:01;;;;;;;0.50;0.50;;;14.50;95.30;;;;;;5070385;28;20046;-69
2023/04/24 01:25:28;;;;;;;2.05;0.70;;;14.30;94.90;;;;;;5071260;28;20028;-69
2023/04/24 01:27:54;;;;;;;0.95;0.50;;;14.40;94.90;;;;;;5070936;28;20123;-69
2023/04/24 01:30:20;;;;;;;2.17;0.80;;;14.50;94.60;;;;;;5070522;28;20053;-67
2023/04/24 01:32:46;;;;;;;0.93;0.57;;;14.50;94.70;;;;;;5070151;28;20157;-67
2023/04/24 01:35:11;;;;;;;2.30;0.50;;;14.50;94.80;;;;;;5068860;28;20467;-68
2023/04/24 01:37:37;;;;;;;0.95;0.57;;;14.50;94.70;;;;;;5070774;28;20028;-69
2023/04/24 01:40:07;;;;;;;0.47;0.40;;;14.30;94.40;;;;;;5070259;28;20029;-68
2023/04/24 01:42:34;;;;;;;1.50;0.60;;;14.40;94.40;;;;;;5070289;28;20033;-68
2023/04/24 01:45:03;;;;;;;0.40;0.40;;;14.30;94.60;;;;;;5070287;28;20519;-68
2023/04/24 01:47:30;;;;;;;0.70;0.60;;;14.30;94.30;;;;;;5070250;28;20037;-69
2023/04/24 01:49:55;;;;;;;0.80;0.60;;;14.30;94.20;;;;;;5070335;28;20516;-69
2023/04/24 01:52:21;;;;;;;0.65;0.52;;;14.30;94.30;;;;;;5071319;28;20088;-68
2023/04/24 01:54:47;;;;;;;0.77;0.55;;;14.30;94.30;;;;;;5070288;28;20462;-68
2023/04/24 01:57:14;;;;;;;1.40;0.70;;;14.30;94.00;;;;;;5070484;28;20382;-68
2023/04/24 01:59:40;;;;;;;2.60;0.57;;;14.20;93.80;;;;;;5085997;28;20029;-69
2023/04/24 02:02:06;;;;;;;3.72;0.73;;;14.30;94.00;;;;;;5071298;28;20089;-69
2023/04/24 02:04:31;;;;;;;1.30;0.90;;;14.20;94.00;;;;;;5075067;28;20439;-68
2023/04/24 02:06:57;;;;;;;2.38;0.70;;;14.20;94.10;;;;;;5074226;28;20458;-69
2023/04/24 02:09:23;;;;;;;1.15;0.70;;;14.10;94.10;;;;;;5074056;28;20025;-69
2023/04/24 02:11:48;;;;;;;1.00;0.70;;;14.10;94.20;;;;;;5073879;28;20473;-69
2023/04/24 02:14:14;;;;;;;0.98;0.70;;;14.10;94.40;;;;;;5073913;28;20032;-69
2023/04/24 02:16:40;;;;;;;1.23;0.70;;;14.00;94.50;;;;;;5074597;28;20726;-70
2023/04/24 02:19:06;;;;;;;1.75;0.93;;;14.00;94.60;;;;;;5073713;28;20462;-69
2023/04/24 02:21:32;;;;;;;2.78;0.50;;;14.10;94.60;;;;;;5073677;28;20044;-70
2023/04/24 02:23:58;;;;;;;1.17;0.60;;;14.00;94.50;;;;;;5073643;28;20028;-70
2023/04/24 02:26:24;;;;;;;0.60;0.60;;;14.00;94.50;;;;;;5073936;28;20051;-69
2023/04/24 02:28:50;;;;;;;1.48;0.73;;;14.00;94.60;;;;;;5073770;28;20020;-69
2023/04/24 02:31:16;;;;;;;1.00;0.68;;;14.00;94.50;;;;;;5074083;28;20036;-69
2023/04/24 02:33:41;;;;;;;0.50;0.50;;;14.00;94.50;;;;;;5073301;28;20040;-70
2023/04/24 02:36:07;;;;;;;0.50;0.50;;;14.10;94.40;;;;;;5089377;28;20025;-68
2023/04/24 02:38:33;;;;;;;2.55;0.57;;;14.00;94.50;;;;;;5073655;28;20462;-69
2023/04/24 02:40:58;;;;;;;0.47;0.40;;;14.00;94.50;;;;;;5073278;28;20025;-69
2023/04/24 02:43:24;;;;;;;1.80;0.40;;;14.00;94.60;;;;;;5074501;28;20017;-68
2023/04/24 02:45:50;;;;;;;1.65;0.65;;;13.90;94.70;;;;;;5073779;28;20366;-70
2023/04/24 02:48:16;;;;;;;3.72;0.60;;;14.00;94.50;;;;;;5073299;28;20366;-69
2023/04/24 02:50:42;;;;;;;1.58;0.73;;;14.00;94.70;;;;;;5073204;28;20031;-69
2023/04/24 02:53:08;;;;;;;0.57;0.55;;;14.00;94.60;;;;;;5073114;28;20374;-68
2023/04/24 02:55:33;;;;;;;2.45;0.60;;;14.00;94.80;;;;;;5073892;28;20031;-68
2023/04/24 02:57:59;;;;;;;1.10;0.50;;;13.90;94.90;;;;;;5073169;28;20119;-69
2023/04/24 03:00:25;;;;;;;1.48;0.75;;;13.90;94.80;;;;;;5072951;28;20028;-69
2023/04/24 03:02:51;;;;;;;1.05;0.60;;;13.90;94.70;;;;;;5072907;28;20039;-69
2023/04/24 03:05:16;;;;;;;1.17;0.50;;;13.90;94.70;;;;;;5088757;28;20204;-70
2023/04/24 03:07:42;;;;;;;1.42;0.68;;;13.90;94.70;;;;;;5072874;28;20108;-69
2023/04/24 03:10:08;;;;;;;0.65;0.40;;;13.80;94.70;;;;;;5073277;28;20024;-69
2023/04/24 03:12:34;;;;;;;3.95;0.70;;;13.90;94.80;;;;;;5072522;28;20036;-70
2023/04/24 03:14:59;;;;;;;0.90;0.40;;;13.80;94.60;;;;;;5072968;28;20371;-71
2023/04/24 03:17:25;;;;;;;3.30;0.70;;;13.80;94.60;;;;;;5072542;28;20032;-68
2023/04/24 03:19:51;;;;;;;0.88;0.30;;;13.70;94.60;;;;;;5088360;28;20039;-68
2023/04/24 03:22:17;;;;;;;2.78;0.60;;;13.70;94.70;;;;;;5088855;28;20442;-70
2023/04/24 03:24:42;;;;;;;1.40;0.60;;;13.70;94.70;;;;;;5072444;28;20478;-69
2023/04/24 03:27:08;;;;;;;0.90;0.43;;;13.70;94.60;;;;;;5088513;28;20036;-69
2023/04/24 03:29:33;;;;;;;2.15;0.47;;;13.70;94.70;;;;;;5072802;28;20028;-70
2023/04/24 03:31:59;;;;;;;0.40;0.40;;;13.80;94.50;;;;;;5072199;28;20048;-69
2023/04/24 03:34:25;;;;;;;0.63;0.57;;;13.80;94.50;;;;;;5072912;28;20020;-68
2023/04/24 03:36:50;;;;;;;0.40;0.40;;;13.70;94.50;;;;;;5072465;28;20021;-69
2023/04/24 03:39:16;;;;;;;0.77;0.55;;;13.70;94.40;;;;;;5072361;28;20071;-69
2023/04/24 03:41:42;;;;;;;1.20;0.40;;;13.60;94.60;;;;;;5072272;28;20028;-70
2023/04/24 03:44:07;;;;;;;0.80;0.43;;;13.70;94.50;;;;;;5072261;28;20033;-69
2023/04/24 03:46:33;;;;;;;0.75;0.60;;;13.60;94.40;;;;;;5072718;28;20024;-70
2023/04/24 03:48:59;;;;;;;0.63;0.40;;;13.60;94.50;;;;;;5072537;28;20037;-69
2023/04/24 03:51:25;;;;;;;0.70;0.40;;;13.50;94.60;;;;;;5087757;28;20040;-69
2023/04/24 03:53:50;;;;;;;1.50;0.93;;;13.50;94.60;;;;;;5072064;28;20560;-69
2023/04/24 03:56:16;;;;;;;0.70;0.60;;;13.50;94.60;;;;;;5072326;28;20028;-68
2023/04/24 03:58:42;;;;;;;0.63;0.50;;;13.40;94.70;;;;;;5088260;28;20119;-70
2023/04/24 04:01:08;;;;;;;1.30;0.60;;;13.50;95.10;;;;;;5071903;28;20047;-70
2023/04/24 04:03:33;;;;;;;0.70;0.47;;;13.50;95.00;;;;;;5087760;28;20056;-68
2023/04/24 04:05:59;;;;;;;0.50;0.45;;;13.50;95.00;;;;;;5071850;28;20036;-69
2023/04/24 04:08:25;;;;;;;0.80;0.55;;;13.40;95.00;;;;;;5071855;28;20106;-70
2023/04/24 04:10:50;;;;;;;2.80;0.60;;;13.40;95.10;;;;;;5071636;28;20039;-69
2023/04/24 04:13:16;;;;;;;1.77;1.10;;;13.40;95.10;;;;;;5072318;28;20024;-68
2023/04/24 04:15:42;;;;;;;0.40;0.30;;;13.40;95.10;;;;;;5071693;28;20105;-69
2023/04/24 04:18:08;;;;;;;1.98;0.47;;;13.40;95.20;;;;;;5087864;28;20055;-69
2023/04/24 04:20:34;;;;;;;1.63;0.47;;;13.40;95.20;;;;;;5071822;28;20056;-68
2023/04/24 04:22:59;;;;;;;1.30;0.65;;;13.40;95.30;;;;;;5071304;28;20072;-70
2023/04/24 04:25:25;;;;;;;3.70;0.88;;;13.40;95.20;;;;;;5071246;28;20028;-70
2023/04/24 04:27:52;;;;;;;0.90;0.70;;;13.50;95.30;;;;;;5071467;28;20090;-69
2023/04/24 04:30:17;;;;;;;2.35;0.47;;;13.40;95.30;;;;;;5070304;28;20033;-68
2023/04/24 04:32:44;;;;;;;1.05;0.73;;;13.40;95.40;;;;;;5071095;28;20048;-68
2023/04/24 04:35:09;;;;;;;2.47;0.50;;;13.30;95.50;;;;;;5071341;28;20037;-70
2023/04/24 04:37:35;;;;;;;0.60;0.47;;;13.20;95.80;;;;;;5072035;28;20345;-70
2023/04/24 04:40:06;;;;;;;0.82;0.52;;;13.30;95.70;;;;;;5071184;28;20119;-69
2023/04/24 04:42:33;;;;;;;0.57;0.57;;;13.30;95.80;;;;;;5071326;28;20479;-69
2023/04/24 04:45:00;;;;;;;2.35;0.50;;;13.30;95.90;;;;;;5071236;28;20032;-69
2023/04/24 04:47:26;;;;;;;1.38;0.70;;;13.30;95.80;;;;;;5071178;28;20028;-70
2023/04/24 04:49:52;;;;;;;1.42;0.85;;;13.30;95.80;;;;;;5071034;28;20027;-70
2023/04/24 04:52:18;;;;;;;0.43;0.43;;;13.30;95.80;;;;;;5071398;28;20029;-68
2023/04/24 04:54:44;;;;;;;4.35;0.77;;;13.40;95.80;;;;;;5087009;28;20041;-69
2023/04/24 04:57:10;;;;;;;1.58;0.52;;;13.40;95.80;;;;;;5071519;28;20074;-69
2023/04/24 04:59:37;;;;;;;0.50;0.50;;;13.40;95.80;;;;;;5071133;28;20466;-67
2023/04/24 05:02:02;;;;;;;1.42;0.60;;;13.40;96.00;;;;;;5070956;28;20466;-68
2023/04/24 05:04:28;;;;;;;1.52;0.80;;;13.40;96.00;;;;;;5071293;28;20157;-69
2023/04/24 05:06:53;;;;;;;2.22;0.90;;;13.30;96.10;;;;;;5070828;28;20370;-69
2023/04/24 05:09:19;;;;;;;1.27;0.50;;;13.30;96.10;;;;;;5086739;28;20045;-68
2023/04/24 05:11:45;;;;;;;1.25;0.70;;;13.30;96.10;;;;;;5070816;28;20025;-68
2023/04/24 05:14:12;;;;;;;3.03;0.60;;;13.30;96.30;;;;;;5070762;28;20028;-69
2023/04/24 05:16:38;;;;;;;1.37;0.60;;;13.40;96.30;;;;;;5086900;28;20024;-69
2023/04/24 05:19:04;;;;;;;0.60;0.50;;;13.40;96.20;;;;;;5070617;28;20039;-70
2023/04/24 05:21:30;;;;;;;1.40;0.70;;;13.50;96.20;;;;;;5070738;28;20032;-68
2023/04/24 05:23:56;;;;;;;1.58;0.93;;;13.60;96.10;;;;;;5070653;28;20043;-68
2023/04/24 05:26:22;;;;;;;1.42;0.60;;;13.50;96.40;;;;;;5070733;28;20029;-68
2023/04/24 05:28:48;;;;;;;0.90;0.50;;;13.60;96.20;;;;;;5071115;28;20029;-69
2023/04/24 05:31:14;;;;;;;1.20;0.90;;;13.60;96.10;;;;;;5071063;28;20036;-70
2023/04/24 05:33:39;;;;;;;7.00;1.02;;;13.60;96.20;;;;;;5070529;28;20464;-66
2023/04/24 05:36:06;;;;;;;0.63;0.50;;;13.70;96.00;;;;;;5071366;28;20020;-68
2023/04/24 05:38:32;;;;;;;1.33;0.80;;;13.70;96.00;;;;;;5073378;28;20488;-68
2023/04/24 05:40:57;;;;;;;1.23;0.70;;;13.70;95.90;;;;;;5074809;28;20032;-68
2023/04/24 05:43:23;;;;;;;1.05;0.47;;;13.80;95.90;;;;;;5074040;28;20443;-68
2023/04/24 05:45:49;;;;;;;2.03;0.63;;;13.90;95.70;;;;;;5074634;28;20033;-68
2023/04/24 05:48:15;;;;;;;5.20;0.75;;;13.90;95.70;;;;;;5090293;28;20040;-68
2023/04/24 05:50:41;;;;;;;1.67;0.73;;;13.90;95.70;;;;;;5074471;28;20036;-69
2023/04/24 05:53:07;;;;;;;0.80;0.63;;;13.90;95.70;;;;;;5074517;28;20032;-69
2023/04/24 05:55:32;;;;;;;3.63;0.68;;;13.90;95.60;;;;;;5074644;28;20083;-69
2023/04/24 05:57:58;;;;;;;1.95;0.88;;;13.90;95.60;;;;;;5074315;28;20033;-67
2023/04/24 06:00:25;;;;;;;4.70;0.80;;;14.00;95.70;;;;;;5074429;28;20040;-69
2023/04/24 06:02:52;;;;;;;2.50;0.65;;;14.10;95.60;;;;;;5074128;28;20345;-68
2023/04/24 06:05:18;;;;;;;2.55;1.05;;;14.10;95.40;;;;;;5074076;28;20037;-70
2023/04/24 06:07:44;;;;;;;5.00;1.27;;;14.20;96.30;;;;;;5074503;28;20082;-69
2023/04/24 06:10:10;;;;;;;2.05;0.98;;;14.20;94.90;;;;;;5089804;28;20029;-69
2023/04/24 06:12:37;;;;;;;1.00;1.00;;;14.20;94.70;;;;;;5073957;28;20043;-70
2023/04/24 06:15:03;;;;;;;3.42;1.00;;;14.20;94.20;;;;;;5072931;28;20366;-69
2023/04/24 06:17:29;;;;;;;3.42;1.10;;;14.20;94.20;;;;;;5073869;28;20033;-70
2023/04/24 06:19:54;;;;;;;3.50;2.00;;;14.20;94.20;;;;;;5074072;28;20400;-69
2023/04/24 06:22:20;;;;;;;1.95;1.25;;;14.20;93.80;;;;;;5074320;28;20040;-71
2023/04/24 06:24:47;;;;;;;1.75;1.02;;;14.10;93.10;;;;;;5073943;28;20512;-72
2023/04/24 06:27:13;;;;;;;4.70;1.17;;;14.10;92.80;;;;;;5073982;28;20389;-70
2023/04/24 06:29:39;;;;;;;1.02;0.80;;;14.00;92.20;;;;;;5074085;28;20028;-70
2023/04/24 06:32:05;;;;;;;4.53;1.23;;;13.90;92.20;;;;;;5072471;28;20416;-70
2023/04/24 06:34:32;;;;;;;4.50;1.00;;;13.90;92.30;;;;;;5074328;28;20017;-70
2023/04/24 06:36:58;;;;;;;2.45;1.48;;;13.80;92.40;;;;;;5073829;28;20116;-70
2023/04/24 06:39:23;;;;;;;2.67;1.30;;;14.00;92.40;;;;;;5072578;28;20502;-71
2023/04/24 06:41:49;;;;;;;3.50;1.33;;;14.00;92.30;;;;;;5073467;28;20036;-70
2023/04/24 06:44:15;;;;;;;6.15;1.92;;;14.00;92.30;;;;;;5073611;28;20079;-70
2023/04/24 06:46:41;;;;;;;1.98;1.05;;;14.10;92.30;;;;;;5073896;28;20043;-71
2023/04/24 06:49:08;;;;;;;4.03;1.40;;;14.00;92.50;;;;;;5072822;28;20367;-69
2023/04/24 06:51:33;;;;;;;2.92;1.63;;;14.10;92.40;;;;;;5073309;28;20470;-70
2023/04/24 06:53:59;;;;;;;2.13;1.25;;;14.00;92.30;;;;;;5073411;28;20079;-70
2023/04/24 06:56:26;;;;;;;2.25;1.38;;;13.90;92.50;;;;;;5073722;28;20048;-70
2023/04/24 06:58:51;;;;;;;3.75;1.70;;;14.10;92.60;;;;;;5073088;28;20492;-70
2023/04/24 07:01:17;;;;;;;6.20;2.20;;;14.20;92.40;;;;;;5073837;28;20025;-71
2023/04/24 07:03:43;;;;;;;2.03;1.83;;;14.20;92.20;;;;;;5073046;28;20114;-69
2023/04/24 07:06:10;;;;;;;4.22;2.35;;;14.20;92.30;;;;;;5073441;28;20343;-72
2023/04/24 07:08:37;;;;;;;3.88;2.13;;;14.10;92.10;;;;;;5072052;28;20086;-71
2023/04/24 07:11:03;;;;;;;4.20;2.72;;;14.20;92.20;;;;;;5073098;28;20346;-71
2023/04/24 07:13:35;;;;;;;5.03;2.67;;;14.20;91.80;;;;;;5073496;28;20021;-72
2023/04/24 07:16:01;;;;;;;6.05;2.70;;;14.10;91.60;;;;;;5072989;28;20121;-69
2023/04/24 07:18:26;;;;;;;5.07;3.00;;;14.20;91.70;;;;;;5071760;28;20518;-69
2023/04/24 07:20:52;;;;;;;6.63;3.22;;;14.30;91.70;;;;;;5071661;28;20201;-70
2023/04/24 07:23:19;;;;;;;6.18;2.75;;;14.30;91.60;;;;;;5071886;28;20035;-69
2023/04/24 07:25:45;;;;;;;5.90;3.42;;;14.30;91.60;;;;;;5072283;28;20067;-70
2023/04/24 07:28:11;;;;;;;5.35;3.15;;;14.30;91.30;;;;;;5073145;28;20416;-70
2023/04/24 07:30:36;;;;;;;5.82;3.30;;;14.50;91.60;;;;;;5072725;28;20025;-72
2023/04/24 07:33:02;;;;;;;8.60;3.03;;;14.30;90.90;;;;;;5072633;28;20489;-70
2023/04/24 07:35:28;;;;;;;5.95;4.03;;;14.20;91.20;;;;;;5072681;28;20025;-70
2023/04/24 07:37:53;;;;;;;6.30;3.40;;;14.30;90.90;;;;;;5072475;28;20050;-69
2023/04/24 07:40:20;;;;;;;8.20;3.95;;;14.40;90.70;;;;;;5073093;28;20173;-70
2023/04/24 07:42:48;;;;;;;7.82;3.45;;;14.50;90.60;;;;;;5072490;28;20120;-69
2023/04/24 07:45:14;;;;;;;8.85;3.78;;;14.80;90.90;;;;;;5072449;28;20024;-70
2023/04/24 07:47:43;;;;;;;5.68;3.45;;;15.50;90.20;;;;;;5072269;28;20043;-73
2023/04/24 07:50:09;;;;;;;7.18;3.65;;;16.50;87.80;;;;;;5071613;28;20054;-70
2023/04/24 07:52:35;;;;;;;6.00;4.10;;;16.80;85.90;;;;;;5072715;28;20028;-71
2023/04/24 07:55:02;;;;;;;5.97;3.85;;;16.60;85.40;;;;;;5072559;28;20025;-70
2023/04/24 07:57:28;;;;;;;7.63;4.03;;;16.30;85.40;;;;;;5072547;28;20143;-71
2023/04/24 07:59:54;;;;;;;8.35;5.20;;;16.10;86.00;;;;;;5071181;28;20090;-71
2023/04/24 08:02:21;;;;;;;8.48;4.50;;;15.80;86.80;;;;;;5072178;28;20074;-69
2023/04/24 08:04:47;;;;;;;6.87;4.57;;;16.00;87.30;;;;;;5072070;28;20021;-72
2023/04/24 08:07:12;;;;;;;11.25;5.53;;;16.20;86.40;;;;;;5072157;28;20099;-70
2023/04/24 08:09:38;;;;;;;10.85;4.95;;;15.60;86.40;;;;;;5072329;28;20032;-69
2023/04/24 08:12:04;;;;;;;8.63;5.20;;;15.60;87.40;;;;;;5071888;28;20036;-68
2023/04/24 08:14:30;;;;;;;10.68;5.82;;;15.50;87.90;;;;;;5071875;28;20063;-69
2023/04/24 08:16:56;;;;;;;9.63;5.32;;;15.60;87.90;;;;;;5072061;28;20020;-70
2023/04/24 08:19:22;;;;;;;9.90;5.75;;;15.60;88.10;;;;;;5072180;28;20439;-70
2023/04/24 08:21:47;;;;;;;9.13;5.72;;;15.70;88.50;;;;;;5071750;28;20036;-70
2023/04/24 08:24:13;;;;;;;7.90;5.07;;;15.90;87.90;;;;;;5070361;28;20357;-69
2023/04/24 08:26:39;;;;;;;8.07;4.95;;;16.10;87.70;;;;;;5071683;28;20033;-69
2023/04/24 08:29:06;;;;;;;9.13;5.45;;;16.70;87.30;;;;;;5071547;28;20060;-70
2023/04/24 08:31:32;;;;;;;8.27;4.57;;;16.50;85.50;;;;;;5071454;28;20455;-69
2023/04/24 08:33:59;;;;;;;9.02;4.88;;;16.30;86.10;;;;;;5071445;28;20132;-71
2023/04/24 08:36:25;;;;;;;10.70;5.73;;;16.40;85.80;;;;;;5070435;28;20024;-71
2023/04/24 08:38:52;;;;;;;10.13;4.90;;;16.70;85.10;;;;;;5071356;28;20268;-71
2023/04/24 08:41:18;;;;;;;8.95;4.65;;;17.40;84.00;;;;;;5071447;28;20424;-69
2023/04/24 08:43:46;;;;;;;13.15;4.65;;;18.00;81.80;;;;;;5071902;28;20355;-68
2023/04/24 08:46:13;;;;;;;7.97;4.65;;;18.10;79.40;;;;;;5071365;28;20204;-70
2023/04/24 08:48:39;;;;;;;7.93;4.05;;;17.50;79.50;;;;;;5070329;28;20414;-71
2023/04/24 08:51:07;;;;;;;4.78;3.97;;;18.30;81.10;;;;;;5071201;28;20049;-71
2023/04/24 08:53:33;;;;;;;7.50;3.67;;;19.30;77.30;;;;;;5069977;28;20280;-70
2023/04/24 08:56:01;;;;;;;7.38;3.45;;;20.60;75.10;;;;;;5070922;28;20383;-68
2023/04/24 08:58:27;;;;;;;6.20;3.80;;;20.50;73.10;;;;;;5071662;28;20025;-68
2023/04/24 09:00:57;;;;;;;5.72;3.58;;;20.00;70.50;;;;;;5070824;28;20021;-70
2023/04/24 09:03:23;;;;;;;7.97;3.55;;;19.90;72.00;;;;;;5071065;28;20040;-70
2023/04/24 09:05:50;;;;;;;5.68;2.78;;;19.20;71.90;;;;;;5069770;28;20051;-72
2023/04/24 09:08:22;;;;;;;5.15;2.38;;;18.70;71.30;;;;;;5070822;28;20115;-71
2023/04/24 09:10:48;;;;;;;3.80;2.47;;;18.00;71.50;;;;;;5070985;28;20099;-68
2023/04/24 09:13:14;;;;;;;9.43;2.65;;;17.50;73.10;;;;;;5071228;28;20043;-69
2023/04/24 09:15:40;;;;;;;3.25;2.25;;;17.40;73.90;;;;;;5071268;28;20123;-70
2023/04/24 09:18:06;;;;;;;3.40;2.55;;;17.50;73.80;;;;;;5070956;28;20036;-69
2023/04/24 09:20:33;;;;;;;3.13;2.40;;;17.10;74.40;;;;;;5070861;28;20043;-69
2023/04/24 09:22:58;;;;;;;4.43;2.30;;;16.90;75.10;;;;;;5069751;28;20024;-70
2023/04/24 09:25:38;;;;;;;3.80;2.75;;;16.60;75.90;;;;;;5071408;28;20039;-69
2023/04/24 09:28:05;;;;;;;3.25;2.20;;;16.40;76.60;;;;;;5069452;28;20041;-70
2023/04/24 09:30:31;;;;;;;4.50;2.50;;;16.40;77.00;;;;;;5069535;28;20334;-77
2023/04/24 09:33:15;;;;;;;4.10;2.28;;;16.10;77.80;;;;;;5070026;28;20040;-68
2023/04/24 09:35:52;;;;;;;3.22;2.20;;;16.30;78.00;;;;;;5070367;28;20040;-71
2023/04/24 09:38:18;;;;;;;3.45;2.50;;;16.20;78.10;;;;;;5069725;28;20029;-72
2023/04/24 09:40:44;;;;;;;3.50;2.60;;;16.00;78.40;;;;;;5070040;28;20101;-70
2023/04/24 09:43:12;;;;;;;4.15;2.60;;;15.80;78.70;;;;;;5071129;28;20044;-70
2023/04/24 09:45:39;;;;;;;4.80;2.38;;;15.70;79.10;;;;;;5069635;28;20028;-69
2023/04/24 09:48:08;;;;;;;5.15;2.55;;;15.80;79.30;;;;;;5070559;28;20131;-70
2023/04/24 09:50:34;;;;;;;5.53;3.10;;;15.60;79.70;;;;;;5070705;28;20120;-71
2023/04/24 09:53:05;;;;;;;4.85;2.85;;;15.70;80.00;;;;;;5069395;28;20104;-70
2023/04/24 09:55:31;;;;;;;5.07;2.70;;;15.60;80.20;;;;;;5069980;28;20063;-70
2023/04/24 09:57:58;;;;;;;3.00;2.47;;;15.60;80.40;;;;;;5070546;28;20441;-71
2023/04/24 10:00:29;;;;;;;3.67;2.50;;;15.80;80.30;;;;;;5070408;28;20408;-70
2023/04/24 10:02:59;;;;;;;3.95;2.17;;;15.70;80.00;;;;;;5069104;28;20037;-67
2023/04/24 10:05:28;;;;;;;3.45;2.08;;;15.70;80.20;;;;;;5068984;28;20032;-70
2023/04/24 10:08:16;;;;;;;3.97;2.50;;;15.70;80.30;;;;;;5070218;28;20079;-69
2023/04/24 10:10:44;;;;;;;8.77;2.40;;;15.60;80.50;;;;;;5070649;28;20051;-70
2023/04/24 10:13:12;;;;;;;3.25;2.38;;;15.30;81.40;;;;;;5070398;28;20040;-69
2023/04/24 10:15:38;;;;;;;3.30;2.20;;;15.30;81.70;;;;;;5069176;28;20080;-69
2023/04/24 10:18:06;;;;;;;2.80;2.35;;;15.30;81.70;;;;;;5070525;28;20755;-70
2023/04/24 10:20:33;;;;;;;5.40;2.60;;;15.30;81.60;;;;;;5070465;28;20024;-72
2023/04/24 10:22:59;;;;;;;2.50;2.15;;;15.40;81.70;;;;;;5071029;28;20024;-72
2023/04/24 10:25:30;;;;;;;4.63;2.63;;;15.40;81.40;;;;;;5073565;28;20024;-72
2023/04/24 10:27:59;;;;;;;4.82;2.08;;;15.30;81.90;;;;;;5074280;28;20036;-71
2023/04/24 10:30:26;;;;;;;5.60;2.63;;;15.20;82.30;;;;;;5072859;28;20060;-71
2023/04/24 10:32:52;;;;;;;6.20;2.45;;;15.00;82.80;;;;;;5073642;28;20047;-71
2023/04/24 10:35:21;;;;;;;5.07;2.17;;;15.10;83.20;;;;;;5073964;28;20045;-70
2023/04/24 10:37:53;;;;;;;4.15;1.77;;;15.10;83.10;;;;;;5073830;28;20024;-70
2023/04/24 10:40:26;;;;;;;6.18;2.00;;;15.10;83.00;;;;;;5073247;28;20036;-70
2023/04/24 10:42:55;;;;;;;4.70;2.28;;;15.00;83.00;;;;;;5072646;28;20025;-70
2023/04/24 10:45:22;;;;;;;4.55;2.05;;;14.90;83.70;;;;;;5073876;28;20101;-71
2023/04/24 10:48:10;;;;;;;2.23;1.73;;;14.90;84.20;;;;;;5073772;28;20079;-71
2023/04/24 10:50:52;;;;;;;3.38;1.75;;;14.80;84.60;;;;;;5073543;28;20109;-72
2023/04/24 10:53:23;;;;;;;3.30;1.60;;;14.80;84.20;;;;;;5073637;28;20116;-72
2023/04/24 10:55:58;;;;;;;4.88;2.50;;;14.70;84.30;;;;;;5073802;28;20373;-71
2023/04/24 10:58:35;;;;;;;4.75;1.80;;;14.80;85.00;;;;;;5074090;28;20219;-72
2023/04/24 11:01:00;;;;;;;4.07;1.70;;;14.70;84.60;;;;;;5072370;28;20032;-71
2023/04/24 11:03:29;;;;;;;2.42;1.77;;;14.70;84.90;;;;;;5073622;28;20040;-68
2023/04/24 11:06:08;;;;;;;4.45;1.92;;;14.70;84.60;;;;;;5073296;28;20032;-70
2023/04/24 11:08:44;;;;;;;4.28;2.00;;;14.80;84.70;;;;;;5073358;28;20037;-69
2023/04/24 11:11:15;;;;;;;3.55;1.88;;;14.80;84.80;;;;;;5073621;28;20024;-70
2023/04/24 11:13:56;;;;;;;2.55;1.70;;;15.00;84.50;;;;;;5074407;28;20337;-70
2023/04/24 11:16:44;;;;;;;3.40;1.88;;;14.90;84.70;;;;;;5074598;28;20059;-69
2023/04/24 11:19:18;;;;;;;3.13;2.17;;;14.90;84.50;;;;;;5075235;28;20107;-70
2023/04/24 11:22:03;;;;;;;3.25;1.80;;;14.80;84.80;;;;;;5073805;28;20146;-70
2023/04/24 11:24:39;;;;;;;2.22;1.63;;;14.80;84.60;;;;;;5071823;28;20063;-71
2023/04/24 11:27:29;;;;;;;3.03;1.90;;;14.80;84.70;;;;;;5072839;28;20044;-71
2023/04/24 11:29:54;;;;;;;3.33;1.50;;;14.70;85.10;;;;;;5072752;28;20097;-69
2023/04/24 11:32:32;;;;;;;2.83;1.50;;;14.60;85.60;;;;;;5072484;28;20139;-71
2023/04/24 11:35:03;;;;;;;3.70;1.45;;;14.60;85.30;;;;;;5071268;28;20120;-69
2023/04/24 11:37:37;;;;;;;2.17;1.50;;;14.60;84.80;;;;;;5073494;28;20107;-69
2023/04/24 11:40:05;;;;;;;3.53;1.10;;;14.60;84.50;;;;;;5072806;28;20036;-72
2023/04/24 11:42:39;;;;;;;2.53;1.55;;;14.80;84.50;;;;;;5072734;28;20037;-71
2023/04/24 11:45:10;;;;;;;2.38;1.17;;;14.90;84.20;;;;;;5072748;28;20064;-70
2023/04/24 11:47:35;;;;;;;1.95;1.30;;;14.80;83.90;;;;;;5072512;28;20389;-71
2023/04/24 11:50:03;;;;;;;4.93;1.15;;;14.80;84.50;;;;;;5072398;28;20073;-69
2023/04/24 11:52:30;;;;;;;4.95;1.05;;;14.80;84.40;;;;;;5071643;28;20062;-70
2023/04/24 11:54:56;;;;;;;1.85;1.13;;;14.70;84.60;;;;;;5072371;28;20040;-70
2023/04/24 11:57:26;;;;;;;1.02;0.90;;;14.70;84.60;;;;;;5072262;28;20024;-69
2023/04/24 11:59:51;;;;;;;1.45;0.80;;;14.70;84.80;;;;;;5072393;28;20040;-70
2023/04/24 12:02:22;;;;;;;1.80;1.10;;;14.80;85.10;;;;;;5071949;28;20029;-70
2023/04/24 12:04:47;;;;;;;2.78;1.10;;;14.80;84.80;;;;;;5071889;28;20028;-69
2023/04/24 12:07:13;;;;;;;0.73;0.73;;;14.80;84.90;;;;;;5072755;28;20013;-72
2023/04/24 12:09:43;;;;;;;2.20;0.80;;;14.70;84.20;;;;;;5070893;28;20680;-73
2023/04/24 12:12:10;;;;;;;2.33;1.05;;;14.80;84.30;;;;;;5071729;28;20563;-71
2023/04/24 12:14:50;;;;;;;2.40;0.98;;;14.70;84.20;;;;;;5070699;28;20116;-70
2023/04/24 12:17:25;;;;;;;2.88;1.08;;;14.80;84.00;;;;;;5071490;28;20021;-70
2023/04/24 12:19:50;;;;;;;2.33;0.80;;;14.60;84.00;;;;;;5071820;28;20369;-70
2023/04/24 12:22:16;;;;;;;3.33;0.75;;;14.70;84.00;;;;;;5072073;28;20056;-69
2023/04/24 12:24:58;;;;;;;2.58;1.20;;;14.70;84.70;;;;;;5071583;28;20037;-71
2023/04/24 12:27:24;;;;;;;5.53;1.17;;;14.40;84.00;;;;;;5070618;28;20056;-70
2023/04/24 12:29:56;;;;;;;3.65;0.60;;;14.50;84.30;;;;;;5070497;28;20362;-69
2023/04/24 12:32:22;;;;;;;1.55;0.90;;;14.40;84.50;;;;;;5071269;28;20039;-71
2023/04/24 12:34:50;;;;;;;4.28;1.00;;;14.50;84.60;;;;;;5071739;28;20036;-70
2023/04/24 12:37:16;;;;;;;1.40;0.60;;;14.60;84.90;;;;;;5071798;28;20167;-70
2023/04/24 12:40:01;;;;;;;4.65;1.30;;;14.80;85.10;;;;;;5071797;28;20131;-69
2023/04/24 12:42:30;;;;;;;0.55;0.38;;;14.70;85.40;;;;;;5070376;28;20518;-70
2023/04/24 12:44:59;;;;;;;1.63;0.73;;;14.70;85.40;;;;;;5071057;28;20052;-70